Time;durP1;ratioP1;P1;durP2;ratioP2;P2;SDS_P1;SDS_P2;PMS_P1;PMS_P2;Temp;Humidity;BMP_temperature;BMP_pressure;BME280_temperature;BME280_humidity;BME280_pressure;Samples;Min_cycle;Max_cycle;Signal;HPM_P1;HPM_P2
2024/01/28 00:01:17;;;;;;;80.78;52.25;;;;;;;4.75;89.33;103141.03;5008222;28;20045;-81
2024/01/28 00:03:44;;;;;;;81.65;53.45;;;;;;;4.83;88.49;103132.06;5008202;28;20054;-81
2024/01/28 00:06:12;;;;;;;78.57;52.10;;;;;;;4.62;88.70;103112.41;5026106;28;20102;-82
2024/01/28 00:08:40;;;;;;;77.35;48.47;;;;;;;4.63;88.74;103129.03;5020496;28;20506;-83
2024/01/28 00:11:06;;;;;;;78.32;49.80;;;;;;;4.46;88.91;103105.75;5037549;28;20053;-83
2024/01/28 00:13:34;;;;;;;80.60;50.28;;;;;;;4.52;88.61;103115.28;5018505;28;20041;-83
2024/01/28 00:16:01;;;;;;;88.43;52.83;;;;;;;4.60;88.68;103129.13;5030186;28;20077;-83
2024/01/28 00:18:29;;;;;;;85.07;51.38;;;;;;;4.59;88.75;103140.56;5031177;28;20084;-81
2024/01/28 00:20:57;;;;;;;81.32;51.50;;;;;;;4.52;89.07;103123.19;5021672;28;20396;-83
2024/01/28 00:23:25;;;;;;;83.35;52.47;;;;;;;4.63;89.16;103129.03;5024054;28;20054;-83
2024/01/28 00:25:52;;;;;;;87.50;53.40;;;;;;;4.08;89.27;103044.41;5007718;28;20119;-83
2024/01/28 00:28:19;;;;;;;85.78;54.58;;;;;;;4.06;89.39;103023.41;5010728;28;20196;-83
2024/01/28 00:30:46;;;;;;;83.03;52.80;;;;;;;3.36;88.87;102901.50;5010537;28;20057;-83
2024/01/28 00:33:13;;;;;;;85.38;52.60;;;;;;;4.54;89.23;103108.19;5022080;28;20108;-83
2024/01/28 00:35:40;;;;;;;87.85;52.95;;;;;;;3.27;89.09;102899.06;5015338;28;20133;-82
2024/01/28 00:38:08;;;;;;;79.35;50.22;;;;;;;4.65;88.79;103121.97;5008568;28;20081;-82
2024/01/28 00:40:34;;;;;;;83.82;51.78;;;;;;;4.54;89.27;103103.84;5024926;28;20046;-82
2024/01/28 00:43:04;;;;;;;85.32;51.25;;;;;;;4.59;88.45;103132.66;5012496;28;20357;-83
2024/01/28 00:45:33;;;;;;;94.70;53.17;;;;;;;4.50;88.83;103110.06;5009966;28;20056;-83
2024/01/28 00:48:00;;;;;;;93.35;52.95;;;;;;;4.42;89.42;103128.66;5005366;28;20098;-83
2024/01/28 00:50:27;;;;;;;91.82;52.20;;;;;;;4.15;90.31;103109.09;5005665;28;20129;-83
2024/01/28 00:52:54;;;;;;;93.85;53.20;;;;;;;4.22;90.90;103117.69;5016615;28;20085;-83
2024/01/28 00:55:22;;;;;;;95.50;55.88;;;;;;;4.31;91.63;103122.75;5008375;28;20667;-82
2024/01/28 00:57:48;;;;;;;93.43;53.95;;;;;;;4.22;91.47;103096.66;5009950;28;20057;-82
2024/01/28 01:00:16;;;;;;;93.53;55.67;;;;;;;4.27;92.13;103115.81;5031522;28;20068;-81
2024/01/28 01:02:44;;;;;;;100.60;57.00;;;;;;;4.40;92.08;103117.28;5014639;28;20054;-82
2024/01/28 01:05:11;;;;;;;95.45;53.80;;;;;;;4.51;91.40;103132.81;5003706;28;20058;-82
2024/01/28 01:07:39;;;;;;;101.20;55.17;;;;;;;4.43;91.28;103133.00;5007339;28;20080;-82
2024/01/28 01:10:08;;;;;;;97.20;54.10;;;;;;;3.68;91.47;103011.09;5010753;28;20064;-83
2024/01/28 01:12:35;;;;;;;91.30;52.33;;;;;;;4.30;91.63;103110.53;5005004;28;20057;-83
2024/01/28 01:15:03;;;;;;;85.57;51.72;;;;;;;4.29;91.80;103129.81;5022197;28;20596;-83
2024/01/28 01:17:30;;;;;;;92.32;52.95;;;;;;;4.41;91.88;103150.56;5015851;28;20144;-82
2024/01/28 01:19:56;;;;;;;84.35;50.58;;;;;;;4.35;92.05;103153.34;5019855;28;20388;-84
2024/01/28 01:22:23;;;;;;;93.93;54.45;;;;;;;4.34;91.48;103154.25;5003585;28;20492;-83
2024/01/28 01:24:51;;;;;;;87.35;51.10;;;;;;;4.05;91.66;103100.53;5006921;28;20042;-82
2024/01/28 01:27:18;;;;;;;93.45;52.15;;;;;;;4.42;91.50;103143.56;5012000;28;20520;-83
2024/01/28 01:29:45;;;;;;;86.22;52.50;;;;;;;4.38;92.11;103150.66;5013863;28;20077;-83
2024/01/28 01:32:12;;;;;;;90.90;54.00;;;;;;;4.50;92.24;103153.00;5020359;28;20053;-83
2024/01/28 01:34:39;;;;;;;88.97;52.30;;;;;;;3.74;91.73;103025.88;5005974;28;20587;-82
2024/01/28 01:37:06;;;;;;;96.03;53.95;;;;;;;4.41;91.50;103144.44;5023086;28;20226;-82
2024/01/28 01:39:33;;;;;;;89.45;52.22;;;;;;;4.43;91.26;103154.03;5024344;28;20073;-82
2024/01/28 01:42:00;;;;;;;111.00;54.80;;;;;;;4.12;91.16;103079.38;5030301;28;20073;-80
2024/01/28 01:44:27;;;;;;;102.82;55.60;;;;;;;4.05;91.28;103090.03;5019785;28;20692;-82
2024/01/28 01:46:54;;;;;;;104.80;54.83;;;;;;;4.47;92.06;103152.22;5022214;28;20065;-82
2024/01/28 01:49:24;;;;;;;93.18;51.88;;;;;;;4.48;92.23;103162.69;5026328;28;20054;-83
2024/01/28 01:51:51;;;;;;;100.57;51.90;;;;;;;4.21;92.27;103121.25;5005802;28;20061;-82
2024/01/28 01:54:19;;;;;;;86.10;53.25;;;;;;;4.43;92.00;103177.72;5017324;28;20778;-82
2024/01/28 01:56:46;;;;;;;87.57;51.97;;;;;;;4.38;92.02;103171.69;5013425;28;20046;-82
2024/01/28 01:59:13;;;;;;;97.05;54.13;;;;;;;4.26;92.33;103157.03;5020080;28;20053;-82
2024/01/28 02:01:42;;;;;;;87.50;50.40;;;;;;;4.37;92.28;103174.34;5013142;28;20046;-82
2024/01/28 02:04:09;;;;;;;97.07;52.00;;;;;;;4.31;92.18;103177.97;5023588;28;20491;-84
2024/01/28 02:06:36;;;;;;;92.68;52.20;;;;;;;4.17;92.75;103157.22;5007998;28;20057;-82
2024/01/28 02:09:02;;;;;;;94.75;53.20;;;;;;;4.32;92.37;103187.63;5009414;28;20048;-82
2024/01/28 02:11:30;;;;;;;83.53;48.72;;;;;;;4.34;92.96;103187.56;5023546;28;20050;-81
2024/01/28 02:13:57;;;;;;;108.63;52.45;;;;;;;4.27;92.70;103171.03;5008083;28;20286;-83
2024/01/28 02:16:25;;;;;;;105.50;53.25;;;;;;;4.31;92.60;103170.09;5024625;28;20060;-83
2024/01/28 02:18:52;;;;;;;98.55;52.20;;;;;;;4.42;92.07;103193.56;5024341;28;20053;-84
2024/01/28 02:21:19;;;;;;;89.53;51.78;;;;;;;4.42;92.27;103196.19;5026020;28;20056;-82
2024/01/28 02:23:46;;;;;;;95.35;51.33;;;;;;;4.42;92.85;103210.19;5027966;28;20713;-84
2024/01/28 02:26:13;;;;;;;93.40;53.97;;;;;;;4.35;93.40;103197.22;5027959;28;20148;-83
2024/01/28 02:28:39;;;;;;;98.18;54.15;;;;;;;4.30;93.29;103205.19;5027873;28;20057;-82
2024/01/28 02:31:06;;;;;;;86.82;51.78;;;;;;;3.98;93.46;103140.13;5011221;28;20282;-81
2024/01/28 02:33:33;;;;;;;91.85;50.55;;;;;;;4.36;92.61;103199.78;5027787;28;20422;-84
2024/01/28 02:36:00;;;;;;;95.78;53.45;;;;;;;4.31;92.81;103193.75;5013835;28;20451;-85
2024/01/28 02:38:27;;;;;;;86.50;50.05;;;;;;;4.42;92.43;103202.31;5023856;28;20428;-82
2024/01/28 02:40:55;;;;;;;92.13;50.83;;;;;;;4.45;92.01;103219.78;5024462;28;20045;-82
2024/01/28 02:43:22;;;;;;;96.20;53.28;;;;;;;4.37;92.07;103212.06;5024142;28;20050;-82
2024/01/28 02:45:49;;;;;;;87.07;50.63;;;;;;;4.46;91.61;103222.34;5023796;28;20046;-82
2024/01/28 02:48:16;;;;;;;88.70;49.83;;;;;;;4.42;91.62;103219.84;5009860;28;20137;-82
2024/01/28 02:50:42;;;;;;;81.18;48.50;;;;;;;4.30;91.57;103210.44;5028786;28;20335;-82
2024/01/28 02:53:09;;;;;;;85.70;49.00;;;;;;;4.24;91.19;103184.28;5027575;28;20057;-82
2024/01/28 02:55:36;;;;;;;78.60;46.85;;;;;;;4.40;90.43;103230.41;5028542;28;20053;-82
2024/01/28 02:58:03;;;;;;;77.78;48.20;;;;;;;4.19;90.83;103196.66;5028925;28;20076;-82
2024/01/28 03:00:30;;;;;;;78.20;45.40;;;;;;;4.27;91.50;103211.38;5027235;28;20115;-82
2024/01/28 03:02:56;;;;;;;78.03;48.95;;;;;;;4.14;91.87;103198.50;5026605;28;20061;-82
2024/01/28 03:05:24;;;;;;;84.45;49.03;;;;;;;4.04;92.42;103182.91;5010871;28;20049;-82
2024/01/28 03:07:50;;;;;;;83.10;49.67;;;;;;;3.78;92.31;103154.53;5017550;28;20057;-82
2024/01/28 03:10:17;;;;;;;82.35;49.30;;;;;;;4.09;93.09;103203.00;5023940;28;20260;-83
2024/01/28 03:12:44;;;;;;;76.65;47.83;;;;;;;4.17;92.61;103220.34;5022723;28;20081;-82
2024/01/28 03:15:11;;;;;;;81.63;48.70;;;;;;;4.12;92.36;103200.31;5023539;28;20126;-82
2024/01/28 03:17:38;;;;;;;77.38;47.75;;;;;;;4.33;92.73;103230.56;5008312;28;20060;-84
2024/01/28 03:20:06;;;;;;;80.50;47.45;;;;;;;4.46;91.79;103238.13;5023171;28;20195;-81
2024/01/28 03:22:33;;;;;;;73.57;48.92;;;;;;;4.37;92.25;103200.66;5023731;28;20056;-83
2024/01/28 03:24:59;;;;;;;74.30;46.08;;;;;;;4.43;91.88;103217.16;5023325;28;20104;-82
2024/01/28 03:27:26;;;;;;;79.18;47.08;;;;;;;4.33;91.67;103199.84;5025617;28;20562;-83
2024/01/28 03:29:53;;;;;;;72.80;44.85;;;;;;;4.30;91.18;103210.44;5026430;28;20550;-83
2024/01/28 03:32:19;;;;;;;72.68;44.50;;;;;;;4.35;91.45;103219.09;5010604;28;20657;-82
2024/01/28 03:34:46;;;;;;;79.25;47.63;;;;;;;3.92;91.68;103135.00;5027305;28;20057;-82
2024/01/28 03:37:13;;;;;;;76.00;45.53;;;;;;;4.03;91.81;103159.31;5020784;28;20060;-82
2024/01/28 03:39:40;;;;;;;77.85;47.70;;;;;;;4.22;91.56;103191.31;5006939;28;20250;-83
2024/01/28 03:42:07;;;;;;;77.30;46.45;;;;;;;4.32;91.25;103195.50;5023084;28;20449;-82
2024/01/28 03:44:34;;;;;;;74.57;46.15;;;;;;;4.53;90.51;103196.78;5006175;28;20330;-82
2024/01/28 03:47:00;;;;;;;65.78;42.25;;;;;;;4.18;89.99;103147.59;5022679;28;20415;-83
2024/01/28 03:49:27;;;;;;;76.15;45.22;;;;;;;4.46;89.50;103206.56;5009275;28;20165;-83
2024/01/28 03:51:54;;;;;;;71.10;44.67;;;;;;;4.69;89.81;103219.25;5026406;28;20046;-83
2024/01/28 03:54:21;;;;;;;70.20;44.17;;;;;;;4.57;88.73;103184.44;5025959;28;20064;-83
2024/01/28 03:56:47;;;;;;;65.20;42.47;;;;;;;4.88;88.14;103219.69;5026341;28;20045;-82
2024/01/28 03:59:14;;;;;;;69.78;41.80;;;;;;;4.65;87.13;103201.78;5009780;28;20072;-83
2024/01/28 04:01:41;;;;;;;70.90;44.67;;;;;;;4.57;87.86;103198.47;5027308;28;20068;-82
2024/01/28 04:04:08;;;;;;;75.43;44.53;;;;;;;4.48;88.01;103167.94;5009971;28;20053;-83
2024/01/28 04:06:42;;;;;;;75.47;44.92;;;;;;;4.81;88.05;103219.88;5020580;28;20050;-82
2024/01/28 04:09:09;;;;;;;73.32;43.80;;;;;;;4.69;87.50;103213.97;5022228;28;20069;-82
2024/01/28 04:11:36;;;;;;;77.97;44.38;;;;;;;4.51;87.95;103211.75;5022369;28;20049;-83
2024/01/28 04:14:02;;;;;;;71.43;43.33;;;;;;;4.37;88.93;103185.75;5022699;28;20321;-83
2024/01/28 04:16:31;;;;;;;69.20;43.88;;;;;;;3.36;89.33;103010.03;5022826;28;20050;-82
2024/01/28 04:18:58;;;;;;;68.75;43.63;;;;;;;4.44;89.64;103200.50;5013652;28;20052;-83
2024/01/28 04:21:26;;;;;;;69.72;44.13;;;;;;;4.19;89.12;103141.44;5025739;28;20234;-82
2024/01/28 04:23:52;;;;;;;70.68;45.38;;;;;;;4.53;88.89;103198.56;5025258;28;20061;-83
2024/01/28 04:26:19;;;;;;;65.80;41.30;;;;;;;4.69;88.52;103192.06;5026801;28;20140;-83
2024/01/28 04:28:46;;;;;;;66.00;40.42;;;;;;;4.89;86.83;103221.41;5027321;28;20052;-83
2024/01/28 04:31:13;;;;;;;66.55;40.80;;;;;;;4.75;86.51;103196.31;5009216;28;20049;-83
2024/01/28 04:33:41;;;;;;;66.20;41.88;;;;;;;4.63;86.69;103193.03;5025374;28;20431;-82
2024/01/28 04:36:08;;;;;;;65.28;41.90;;;;;;;4.60;86.43;103192.28;5025469;28;20049;-82
2024/01/28 04:38:35;;;;;;;65.22;40.17;;;;;;;4.40;86.83;103162.00;5017766;28;20061;-83
2024/01/28 04:41:02;;;;;;;68.20;41.75;;;;;;;4.77;86.15;103211.16;5022050;28;20053;-82
2024/01/28 04:43:30;;;;;;;66.60;41.13;;;;;;;4.20;86.56;103137.88;5021831;28;20137;-83
2024/01/28 04:45:57;;;;;;;67.47;41.00;;;;;;;4.38;86.77;103166.44;5022322;28;20531;-82
2024/01/28 04:48:24;;;;;;;60.20;39.83;;;;;;;4.53;87.07;103196.78;5007412;28;20045;-84
2024/01/28 04:50:51;;;;;;;67.65;40.95;;;;;;;4.63;86.64;103224.63;5025986;28;20460;-83
2024/01/28 04:53:17;;;;;;;63.30;38.25;;;;;;;4.38;86.64;103190.09;5008952;28;20056;-84
2024/01/28 04:55:44;;;;;;;61.25;39.58;;;;;;;4.37;86.92;103196.28;5027071;28;20495;-83
2024/01/28 04:58:11;;;;;;;61.03;37.50;;;;;;;4.38;86.94;103208.50;5025077;28;20053;-83
2024/01/28 05:00:37;;;;;;;58.88;38.45;;;;;;;4.44;86.63;103212.78;5024977;28;20057;-83
2024/01/28 05:03:04;;;;;;;55.10;37.40;;;;;;;4.24;86.22;103181.63;5025182;28;20049;-82
2024/01/28 05:05:31;;;;;;;57.33;36.97;;;;;;;4.60;85.59;103231.72;5025106;28;20374;-82
2024/01/28 05:07:58;;;;;;;55.15;36.72;;;;;;;4.44;85.29;103212.78;5016536;28;20054;-82
2024/01/28 05:10:26;;;;;;;57.42;37.75;;;;;;;4.58;84.84;103236.16;5001865;28;20061;-82
2024/01/28 05:12:52;;;;;;;59.10;38.20;;;;;;;4.45;85.55;103227.66;5002184;28;20531;-83
2024/01/28 05:15:19;;;;;;;55.80;37.33;;;;;;;4.15;85.53;103176.56;5018424;28;20129;-82
2024/01/28 05:17:46;;;;;;;57.85;36.60;;;;;;;4.24;85.14;103190.38;5021300;28;20280;-81
2024/01/28 05:20:14;;;;;;;62.28;39.08;;;;;;;4.49;85.37;103238.09;5022197;28;20172;-82
2024/01/28 05:22:41;;;;;;;58.88;38.05;;;;;;;4.58;85.53;103252.81;5026070;28;20152;-82
2024/01/28 05:25:09;;;;;;;63.17;40.08;;;;;;;4.50;85.38;103224.03;5024936;28;20293;-83
2024/01/28 05:27:37;;;;;;;58.78;38.92;;;;;;;4.72;85.25;103257.78;5008367;28;20052;-83
2024/01/28 05:30:04;;;;;;;66.22;39.92;;;;;;;4.74;85.19;103265.66;5025110;28;20045;-81
2024/01/28 05:32:31;;;;;;;58.60;36.13;;;;;;;4.67;85.42;103257.00;5024756;28;20049;-82
2024/01/28 05:35:01;;;;;;;59.75;37.83;;;;;;;4.56;86.03;103253.72;5025308;28;20256;-83
2024/01/28 05:37:28;;;;;;;59.80;37.13;;;;;;;4.16;86.43;103197.59;5021259;28;20072;-83
2024/01/28 05:39:56;;;;;;;68.00;39.92;;;;;;;4.61;85.58;103258.03;5025285;28;20515;-81
2024/01/28 05:42:23;;;;;;;57.65;37.35;;;;;;;4.32;85.74;103250.75;5009573;28;20050;-81
2024/01/28 05:44:49;;;;;;;57.92;37.45;;;;;;;4.44;86.53;103258.38;5025594;28;20471;-82
2024/01/28 05:47:16;;;;;;;53.63;32.70;;;;;;;4.34;86.66;103264.69;5008639;28;20076;-82
2024/01/28 05:49:43;;;;;;;61.65;30.05;;;;;;;4.29;86.28;103277.94;5023858;28;20510;-81
2024/01/28 05:52:10;;;;;;;56.28;34.38;;;;;;;4.14;86.40;103280.00;5006371;28;20139;-81
2024/01/28 05:54:41;;;;;;;52.67;32.38;;;;;;;3.69;87.30;103209.91;5003657;28;20504;-82
2024/01/28 05:57:09;;;;;;;59.20;33.83;;;;;;;4.16;87.40;103275.59;5022379;28;20049;-82
2024/01/28 05:59:37;;;;;;;57.90;32.30;;;;;;;4.07;87.43;103255.59;5006279;28;20496;-82
2024/01/28 06:02:04;;;;;;;58.38;33.28;;;;;;;4.26;87.25;103288.53;5009456;28;20439;-82
2024/01/28 06:04:31;;;;;;;63.40;31.95;;;;;;;4.04;88.11;103282.81;5024332;28;20129;-83
2024/01/28 06:06:59;;;;;;;59.45;30.00;;;;;;;3.54;88.77;103203.13;5021769;28;20046;-82
2024/01/28 06:09:27;;;;;;;66.43;31.35;;;;;;;3.94;89.23;103289.13;5023800;28;20192;-82
2024/01/28 06:11:53;;;;;;;65.07;33.25;;;;;;;3.94;89.00;103304.06;5007105;28;20042;-82
2024/01/28 06:14:20;;;;;;;55.70;31.65;;;;;;;3.93;90.13;103304.94;5007933;28;20046;-82
2024/01/28 06:16:47;;;;;;;62.58;32.40;;;;;;;3.54;90.51;103254.81;5013444;28;20046;-82
2024/01/28 06:19:14;;;;;;;62.53;32.45;;;;;;;3.77;90.54;103293.84;4969656;28;20053;-82
2024/01/28 06:21:41;;;;;;;66.05;32.70;;;;;;;3.96;90.62;103303.13;5009163;28;20049;-82
2024/01/28 06:24:07;;;;;;;59.92;32.35;;;;;;;3.56;90.09;103237.25;5009377;28;20065;-81
2024/01/28 06:26:36;;;;;;;61.03;33.80;;;;;;;3.98;89.58;103303.97;5024838;28;20515;-82
2024/01/28 06:29:03;;;;;;;53.25;31.90;;;;;;;3.95;88.54;103295.25;5008936;28;20064;-83
2024/01/28 06:31:30;;;;;;;62.60;31.77;;;;;;;3.77;88.53;103278.06;5018144;28;20050;-81
2024/01/28 06:33:57;;;;;;;55.17;33.10;;;;;;;4.06;88.85;103330.13;5008311;28;20759;-82
2024/01/28 06:36:24;;;;;;;53.65;30.58;;;;;;;4.04;87.81;103314.34;5008682;28;20119;-83
2024/01/28 06:38:51;;;;;;;54.25;30.15;;;;;;;3.71;87.16;103230.88;5024405;28;20506;-82
2024/01/28 06:41:17;;;;;;;53.03;29.75;;;;;;;4.05;87.63;103320.47;5008670;28;20451;-83
2024/01/28 06:43:44;;;;;;;57.33;30.63;;;;;;;3.72;87.94;103274.66;5024292;28;20476;-84
2024/01/28 06:46:16;;;;;;;48.35;30.05;;;;;;;4.01;88.08;103330.19;5001436;28;20323;-82
2024/01/28 06:48:43;;;;;;;56.28;30.63;;;;;;;4.11;88.10;103335.28;5008231;28;20045;-83
2024/01/28 06:51:10;;;;;;;56.38;28.45;;;;;;;4.14;87.71;103332.59;4990987;28;20061;-83
2024/01/28 06:53:37;;;;;;;55.15;29.60;;;;;;;4.07;87.59;103335.31;5003207;28;20133;-84
2024/01/28 06:56:04;;;;;;;46.45;28.67;;;;;;;4.07;87.41;103337.94;5002738;28;20142;-82
2024/01/28 06:58:31;;;;;;;47.88;28.48;;;;;;;4.02;87.20;103321.41;5024886;28;20194;-83
2024/01/28 07:00:57;;;;;;;52.70;29.23;;;;;;;4.24;86.15;103345.53;5024926;28;20382;-83
2024/01/28 07:03:24;;;;;;;49.38;29.50;;;;;;;4.14;86.17;103340.50;5023753;28;20054;-82
2024/01/28 07:05:52;;;;;;;56.47;29.45;;;;;;;4.20;86.08;103362.28;4989785;28;20489;-81
2024/01/28 07:08:18;;;;;;;53.75;29.15;;;;;;;4.17;86.04;103362.31;4997807;28;20126;-83
2024/01/28 07:10:45;;;;;;;52.10;28.42;;;;;;;3.89;85.85;103322.53;5008276;28;20499;-82
2024/01/28 07:13:12;;;;;;;57.58;32.08;;;;;;;3.74;85.61;103313.16;5023727;28;20061;-82
2024/01/28 07:15:39;;;;;;;54.30;28.55;;;;;;;3.68;86.49;103313.22;5005022;28;20096;-83
2024/01/28 07:18:07;;;;;;;53.70;29.50;;;;;;;3.39;87.14;103274.31;5012717;28;20152;-82
2024/01/28 07:20:34;;;;;;;50.03;28.52;;;;;;;3.74;86.63;103326.28;4998717;28;20042;-83
2024/01/28 07:23:00;;;;;;;52.10;28.83;;;;;;;3.12;86.55;103226.59;5023996;28;20062;-83
2024/01/28 07:25:27;;;;;;;47.90;28.15;;;;;;;4.07;86.76;103368.63;5022048;28;20046;-84
2024/01/28 07:27:54;;;;;;;51.30;27.83;;;;;;;3.88;87.09;103341.78;5024336;28;20052;-83
2024/01/28 07:30:21;;;;;;;51.10;26.23;;;;;;;3.84;86.69;103332.25;5008164;28;20073;-84
2024/01/28 07:32:48;;;;;;;50.63;26.90;;;;;;;3.80;87.94;103341.06;5007735;28;20046;-84
2024/01/28 07:35:15;;;;;;;47.60;26.67;;;;;;;3.98;87.33;103361.78;5023583;28;20042;-83
2024/01/28 07:37:42;;;;;;;48.40;26.92;;;;;;;4.03;87.41;103359.97;5023646;28;20134;-83
2024/01/28 07:40:10;;;;;;;52.90;27.40;;;;;;;3.82;87.08;103340.16;5008601;28;20508;-83
2024/01/28 07:42:37;;;;;;;41.08;24.50;;;;;;;3.95;86.39;103335.53;4989903;28;20053;-83
2024/01/28 07:45:04;;;;;;;47.97;26.77;;;;;;;3.82;86.53;103362.94;5004249;28;20060;-84
2024/01/28 07:47:31;;;;;;;47.30;25.02;;;;;;;3.55;87.82;103325.72;4988962;28;20088;-83
2024/01/28 07:49:59;;;;;;;49.15;25.90;;;;;;;3.79;87.93;103344.59;4988395;28;20046;-83
2024/01/28 07:52:25;;;;;;;42.90;24.70;;;;;;;3.80;87.84;103367.34;5011324;28;20070;-83
2024/01/28 07:54:53;;;;;;;41.67;23.23;;;;;;;3.75;88.13;103354.28;4988056;28;20089;-84
2024/01/28 07:57:21;;;;;;;52.53;26.95;;;;;;;3.76;87.83;103360.41;5006979;28;20042;-83
2024/01/28 07:59:49;;;;;;;49.35;27.10;;;;;;;3.83;87.75;103373.41;5023049;28;20085;-84
2024/01/28 08:02:16;;;;;;;44.67;26.67;;;;;;;3.64;87.89;103346.59;5022616;28;20049;-83
2024/01/28 08:04:47;;;;;;;49.05;25.77;;;;;;;3.35;87.56;103291.91;5006802;28;20128;-84
2024/01/28 08:07:14;;;;;;;50.70;26.10;;;;;;;3.72;87.26;103361.38;5022812;28;20514;-82
2024/01/28 08:09:41;;;;;;;47.47;26.23;;;;;;;3.51;88.04;103316.13;5012005;28;20050;-83
2024/01/28 08:12:08;;;;;;;52.10;27.27;;;;;;;3.88;87.64;103354.94;5002822;28;20104;-83
2024/01/28 08:14:35;;;;;;;50.53;27.08;;;;;;;3.73;86.85;103336.81;4987330;28;20053;-82
2024/01/28 08:17:02;;;;;;;49.38;26.50;;;;;;;3.63;87.49;103360.59;5003979;28;20054;-82
2024/01/28 08:19:31;;;;;;;51.88;28.17;;;;;;;3.70;88.14;103381.53;5004090;28;20050;-83
2024/01/28 08:21:58;;;;;;;51.97;27.52;;;;;;;3.51;88.49;103352.03;5021803;28;20363;-83
2024/01/28 08:24:25;;;;;;;48.85;28.17;;;;;;;3.19;88.12;103293.00;5023642;28;20068;-82
2024/01/28 08:26:52;;;;;;;51.60;27.90;;;;;;;3.72;88.40;103379.75;5007991;28;20056;-81
2024/01/28 08:29:19;;;;;;;48.10;27.08;;;;;;;3.80;86.74;103391.84;5007753;28;20056;-82
2024/01/28 08:31:46;;;;;;;46.97;27.02;;;;;;;3.74;86.59;103386.72;5007925;28;20527;-82
2024/01/28 08:34:12;;;;;;;51.28;29.33;;;;;;;3.67;86.43;103386.84;5023023;28;20058;-82
2024/01/28 08:36:39;;;;;;;48.83;28.85;;;;;;;3.45;87.26;103350.41;5023683;28;20483;-83
2024/01/28 08:39:09;;;;;;;50.20;28.63;;;;;;;3.67;87.51;103402.59;4988647;28;20077;-84
2024/01/28 08:41:36;;;;;;;49.20;28.08;;;;;;;3.65;88.11;103394.75;4995649;28;20120;-82
2024/01/28 08:44:07;;;;;;;50.45;29.52;;;;;;;3.69;87.23;103390.28;4988140;28;20497;-83
2024/01/28 08:46:39;;;;;;;55.22;31.00;;;;;;;3.77;86.40;103393.69;4988225;28;20054;-83
2024/01/28 08:49:06;;;;;;;57.08;29.95;;;;;;;3.48;86.47;103342.47;5002316;28;20050;-81
2024/01/28 08:51:33;;;;;;;51.08;29.20;;;;;;;3.49;86.41;103344.19;5005189;28;20081;-82
2024/01/28 08:54:02;;;;;;;53.17;29.90;;;;;;;3.24;85.82;103300.81;5022536;28;20100;-81
2024/01/28 08:56:29;;;;;;;56.42;31.45;;;;;;;3.90;85.29;103416.22;5007573;28;20401;-83
2024/01/28 08:58:56;;;;;;;49.10;30.45;;;;;;;3.79;84.61;103405.91;5007667;28;20455;-83
2024/01/28 09:01:23;;;;;;;45.67;28.73;;;;;;;3.81;84.14;103421.63;5005084;28;20046;-82
2024/01/28 09:03:50;;;;;;;42.30;28.52;;;;;;;3.49;83.30;103390.59;5016387;28;20333;-81
2024/01/28 09:06:18;;;;;;;45.17;28.35;;;;;;;3.55;84.02;103408.91;5021799;28;20053;-82
2024/01/28 09:08:45;;;;;;;37.83;25.65;;;;;;;3.51;83.51;103418.56;4992568;28;20038;-83
2024/01/28 09:11:12;;;;;;;39.60;27.48;;;;;;;3.61;83.00;103441.19;5022194;28;20144;-82
2024/01/28 09:13:39;;;;;;;41.97;28.08;;;;;;;3.44;83.20;103440.56;5007192;28;20092;-81
2024/01/28 09:16:06;;;;;;;39.90;26.38;;;;;;;3.39;83.21;103439.75;5023245;28;20057;-81
2024/01/28 09:18:33;;;;;;;47.78;28.52;;;;;;;3.19;84.67;103427.75;5023293;28;20053;-82
2024/01/28 09:21:00;;;;;;;41.08;29.38;;;;;;;3.32;84.93;103440.72;5024416;28;20054;-81
2024/01/28 09:23:27;;;;;;;52.85;29.25;;;;;;;3.05;85.03;103397.31;5024992;28;20042;-83
2024/01/28 09:25:53;;;;;;;42.53;29.75;;;;;;;3.39;84.72;103442.38;5007593;28;20278;-81
2024/01/28 09:28:20;;;;;;;44.85;29.42;;;;;;;3.41;85.06;103464.25;5022360;28;20115;-81
2024/01/28 09:30:47;;;;;;;41.03;28.08;;;;;;;3.19;85.27;103448.75;5021856;28;20062;-82
2024/01/28 09:33:14;;;;;;;40.58;27.80;;;;;;;2.89;85.52;103397.53;5021923;28;20108;-82
2024/01/28 09:35:43;;;;;;;42.53;29.15;;;;;;;3.05;85.37;103434.94;5022639;28;20112;-81
2024/01/28 09:38:10;;;;;;;44.85;28.60;;;;;;;3.20;86.09;103453.16;5004973;28;20510;-82
2024/01/28 09:40:37;;;;;;;43.17;30.83;;;;;;;3.05;85.48;103445.44;5022506;28;20081;-84
2024/01/28 09:43:19;;;;;;;46.47;29.95;;;;;;;2.88;85.36;103406.25;5004087;28;20046;-83
2024/01/28 09:45:45;;;;;;;;;;;;;;;3.34;85.17;103486.22;5022428;28;20049;-84
2024/01/28 09:48:13;;;;;;;48.15;31.30;;;;;;;2.92;85.86;103434.22;5006894;28;19921;-83
2024/01/28 09:50:39;;;;;;;49.42;31.45;;;;;;;3.16;85.45;103480.31;5005376;28;20062;-84
2024/01/28 09:53:07;;;;;;;47.83;31.73;;;;;;;3.21;85.02;103475.88;5021615;28;20104;-82
2024/01/28 09:55:34;;;;;;;45.05;31.35;;;;;;;2.81;85.70;103425.59;5005014;28;20471;-83
2024/01/28 09:58:01;;;;;;;45.17;31.05;;;;;;;3.29;85.75;103501.16;5021839;28;20104;-81
2024/01/28 10:00:27;;;;;;;47.75;32.95;;;;;;;3.08;85.54;103455.88;5018151;28;20363;-82
2024/01/28 10:02:54;;;;;;;46.38;31.52;;;;;;;3.32;85.29;103480.13;5008847;28;20120;-81
2024/01/28 10:05:21;;;;;;;47.53;30.45;;;;;;;3.20;84.44;103476.78;4995332;28;20409;-81
2024/01/28 10:07:50;;;;;;;46.00;30.67;;;;;;;3.13;84.16;103475.09;5008193;28;20042;-82
2024/01/28 10:10:17;;;;;;;47.80;32.78;;;;;;;3.09;84.33;103485.66;5002597;28;20390;-81
2024/01/28 10:12:49;;;;;;;48.83;31.98;;;;;;;2.83;84.48;103430.81;5005933;28;20053;-83
2024/01/28 10:15:19;;;;;;;47.13;31.42;;;;;;;2.18;85.00;103317.88;5020812;28;20045;-83
2024/01/28 10:17:48;;;;;;;56.40;32.33;;;;;;;2.81;85.66;103414.22;5004664;28;20050;-82
2024/01/28 10:20:20;;;;;;;53.10;32.95;;;;;;;3.19;85.02;103459.25;5000206;28;20046;-83
2024/01/28 10:22:47;;;;;;;51.97;33.85;;;;;;;2.62;85.32;103356.75;5002989;28;20046;-83
2024/01/28 10:25:15;;;;;;;53.10;33.53;;;;;;;3.18;86.25;103457.53;4990451;28;20061;-83
2024/01/28 10:27:46;;;;;;;51.63;33.47;;;;;;;3.32;87.10;103469.59;5004785;28;20050;-83
2024/01/28 10:30:16;;;;;;;56.08;35.60;;;;;;;3.51;86.53;103500.00;5018944;28;20400;-82
2024/01/28 10:32:44;;;;;;;59.55;36.25;;;;;;;3.50;86.24;103490.41;5005048;28;20374;-82
2024/01/28 10:35:16;;;;;;;60.28;35.70;;;;;;;3.24;85.92;103434.72;4990574;28;20045;-83
2024/01/28 10:37:52;;;;;;;64.40;36.42;;;;;;;3.55;86.30;103491.19;5014684;28;20046;-83
2024/01/28 10:40:23;;;;;;;63.40;37.25;;;;;;;3.51;86.63;103475.50;5024691;28;20053;-81
2024/01/28 10:42:56;;;;;;;66.90;39.07;;;;;;;3.37;86.69;103441.53;5025009;28;20049;-81
2024/01/28 10:45:24;;;;;;;73.43;39.60;;;;;;;2.68;86.16;103298.94;5025276;28;20328;-81
2024/01/28 10:47:55;;;;;;;68.93;38.83;;;;;;;3.40;86.52;103420.50;5009945;28;20646;-82
2024/01/28 10:50:29;;;;;;;74.75;40.08;;;;;;;3.55;87.56;103443.06;5008390;28;20052;-83
2024/01/28 10:52:59;;;;;;;72.75;39.13;;;;;;;3.71;87.13;103459.44;5017728;28;20475;-81
2024/01/28 10:55:28;;;;;;;79.03;43.30;;;;;;;3.80;87.33;103461.94;5004515;28;20492;-83
2024/01/28 10:57:56;;;;;;;91.75;46.17;;;;;;;3.82;85.61;103436.53;5004799;28;20085;-82
2024/01/28 11:00:24;;;;;;;91.50;45.45;;;;;;;4.01;85.88;103487.91;4993259;28;20046;-83
2024/01/28 11:02:58;;;;;;;81.43;42.35;;;;;;;4.11;85.61;103483.38;5005047;28;20055;-82
2024/01/28 11:05:28;;;;;;;73.65;41.53;;;;;;;3.72;85.85;103438.41;5005101;28;20141;-82
2024/01/28 11:07:59;;;;;;;69.43;39.72;;;;;;;3.93;86.08;103471.41;5020092;28;20084;-82
2024/01/28 11:10:31;;;;;;;75.93;38.67;;;;;;;4.16;86.09;103475.44;5010053;28;20065;-81
2024/01/28 11:13:06;;;;;;;70.85;38.25;;;;;;;3.34;85.74;103341.78;5011625;28;20089;-81
2024/01/28 11:15:53;;;;;;;71.93;38.63;;;;;;;4.01;87.20;103466.88;5011836;28;20501;-82
2024/01/28 11:18:28;;;;;;;78.22;40.50;;;;;;;3.49;86.81;103359.06;5009272;28;20072;-83